sensor_id;sensor_type;location;lat;lon;timestamp;pressure;altitude;pressure_sealevel;temperature;humidity
8320;BME280;4197;42.130;24.746;2023-09-19T00:00:45;99924.53;;;16.77;100.00
8320;BME280;4197;42.130;24.746;2023-09-19T00:03:14;99924.81;;;16.64;100.00
8320;BME280;4197;42.130;24.746;2023-09-19T00:05:43;99916.16;;;16.55;100.00
8320;BME280;4197;42.130;24.746;2023-09-19T00:08:13;99920.81;;;16.51;100.00
8320;BME280;4197;42.130;24.746;2023-09-19T00:10:42;99923.22;;;16.60;100.00
8320;BME280;4197;42.130;24.746;2023-09-19T00:13:12;99923.22;;;16.60;100.00
8320;BME280;4197;42.130;24.746;2023-09-19T00:15:44;99923.63;;;16.58;100.00
8320;BME280;4197;42.130;24.746;2023-09-19T00:18:16;99915.41;;;16.58;100.00
8320;BME280;4197;42.130;24.746;2023-09-19T00:20:46;99920.09;;;16.61;100.00
8320;BME280;4197;42.130;24.746;2023-09-19T00:23:17;99914.59;;;16.54;100.00
8320;BME280;4197;42.130;24.746;2023-09-19T00:25:46;99920.03;;;16.50;100.00
8320;BME280;4197;42.130;24.746;2023-09-19T00:28:17;99912.25;;;16.53;99.67
8320;BME280;4197;42.130;24.746;2023-09-19T00:30:46;99915.34;;;16.47;100.00
8320;BME280;4197;42.130;24.746;2023-09-19T00:33:17;99905.56;;;16.50;98.03
8320;BME280;4197;42.130;24.746;2023-09-19T00:35:49;99913.78;;;16.50;97.06
8320;BME280;4197;42.130;24.746;2023-09-19T00:38:17;99911.03;;;16.46;97.17
8320;BME280;4197;42.130;24.746;2023-09-19T00:40:49;99913.34;;;16.41;97.00
8320;BME280;4197;42.130;24.746;2023-09-19T00:43:19;99911.34;;;16.38;96.85
8320;BME280;4197;42.130;24.746;2023-09-19T00:45:50;99909.44;;;16.45;95.91
8320;BME280;4197;42.130;24.746;2023-09-19T00:48:20;99916.50;;;16.46;94.50
8320;BME280;4197;42.130;24.746;2023-09-19T00:50:49;99909.84;;;16.44;95.44
8320;BME280;4197;42.130;24.746;2023-09-19T00:53:20;99903.19;;;16.41;95.12
8320;BME280;4197;42.130;24.746;2023-09-19T00:55:51;99901.94;;;16.32;96.23
8320;BME280;4197;42.130;24.746;2023-09-19T00:58:21;99901.50;;;16.26;97.36
8320;BME280;4197;42.130;24.746;2023-09-19T01:00:49;99903.47;;;16.22;98.33
8320;BME280;4197;42.130;24.746;2023-09-19T01:03:20;99904.59;;;16.21;98.71
8320;BME280;4197;42.130;24.746;2023-09-19T01:05:49;99906.56;;;16.20;98.97
8320;BME280;4197;42.130;24.746;2023-09-19T01:08:17;99908.81;;;16.08;100.00
8320;BME280;4197;42.130;24.746;2023-09-19T01:10:51;99898.69;;;16.12;100.00
8320;BME280;4197;42.130;24.746;2023-09-19T01:13:30;99901.72;;;15.99;100.00
8320;BME280;4197;42.130;24.746;2023-09-19T01:16:07;99899.25;;;15.83;100.00
8320;BME280;4197;42.130;24.746;2023-09-19T01:18:45;99903.16;;;15.82;100.00
8320;BME280;4197;42.130;24.746;2023-09-19T01:21:21;99903.16;;;15.82;100.00
8320;BME280;4197;42.130;24.746;2023-09-19T01:24:11;99898.81;;;15.78;100.00
8320;BME280;4197;42.130;24.746;2023-09-19T01:29:45;99901.97;;;15.80;100.00
8320;BME280;4197;42.130;24.746;2023-09-19T01:32:17;99899.13;;;15.69;100.00
8320;BME280;4197;42.130;24.746;2023-09-19T01:34:50;99898.69;;;15.67;100.00
8320;BME280;4197;42.130;24.746;2023-09-19T01:37:21;99899.06;;;15.66;100.00
8320;BME280;4197;42.130;24.746;2023-09-19T01:39:56;99897.50;;;15.65;100.00
8320;BME280;4197;42.130;24.746;2023-09-19T01:42:35;99900.97;;;15.61;100.00
8320;BME280;4197;42.130;24.746;2023-09-19T01:45:11;99909.91;;;15.55;100.00
8320;BME280;4197;42.130;24.746;2023-09-19T01:47:48;99908.72;;;15.52;100.00
8320;BME280;4197;42.130;24.746;2023-09-19T01:50:22;99900.19;;;15.57;100.00
8320;BME280;4197;42.130;24.746;2023-09-19T01:52:59;99893.56;;;15.62;100.00
8320;BME280;4197;42.130;24.746;2023-09-19T01:55:37;99897.41;;;15.54;100.00
8320;BME280;4197;42.130;24.746;2023-09-19T01:58:08;99898.94;;;15.51;100.00
8320;BME280;4197;42.130;24.746;2023-09-19T02:00:42;99894.22;;;15.48;100.00
8320;BME280;4197;42.130;24.746;2023-09-19T02:03:14;99894.16;;;15.41;100.00
8320;BME280;4197;42.130;24.746;2023-09-19T02:05:48;99891.34;;;15.34;100.00
8320;BME280;4197;42.130;24.746;2023-09-19T02:08:19;99892.00;;;15.24;100.00
8320;BME280;4197;42.130;24.746;2023-09-19T02:10:48;99892.81;;;15.24;100.00
8320;BME280;4197;42.130;24.746;2023-09-19T02:13:16;99886.97;;;15.26;100.00
8320;BME280;4197;42.130;24.746;2023-09-19T02:15:46;99885.44;;;15.28;100.00
8320;BME280;4197;42.130;24.746;2023-09-19T02:18:16;99885.34;;;15.21;100.00
8320;BME280;4197;42.130;24.746;2023-09-19T02:20:45;99880.69;;;15.22;100.00
8320;BME280;4197;42.130;24.746;2023-09-19T02:23:14;99881.50;;;15.26;100.00
8320;BME280;4197;42.130;24.746;2023-09-19T02:25:51;99875.69;;;15.27;100.00
8320;BME280;4197;42.130;24.746;2023-09-19T02:28:20;99875.28;;;15.29;100.00
8320;BME280;4197;42.130;24.746;2023-09-19T02:30:49;99872.97;;;15.31;100.00
8320;BME280;4197;42.130;24.746;2023-09-19T02:33:19;99879.63;;;15.30;100.00
8320;BME280;4197;42.130;24.746;2023-09-19T02:35:47;99886.97;;;15.26;100.00
8320;BME280;4197;42.130;24.746;2023-09-19T02:38:15;99874.03;;;15.19;100.00
8320;BME280;4197;42.130;24.746;2023-09-19T02:40:47;99876.75;;;15.19;100.00
8320;BME280;4197;42.130;24.746;2023-09-19T02:43:16;99882.59;;;15.17;100.00
8320;BME280;4197;42.130;24.746;2023-09-19T02:45:44;99877.09;;;15.14;100.00
8320;BME280;4197;42.130;24.746;2023-09-19T02:48:13;99883.78;;;15.20;100.00
8320;BME280;4197;42.130;24.746;2023-09-19T02:50:43;99875.97;;;15.18;100.00
8320;BME280;4197;42.130;24.746;2023-09-19T02:53:12;99876.72;;;15.15;100.00
8320;BME280;4197;42.130;24.746;2023-09-19T02:55:41;99875.16;;;15.14;100.00
8320;BME280;4197;42.130;24.746;2023-09-19T02:58:09;99875.13;;;15.11;100.00
8320;BME280;4197;42.130;24.746;2023-09-19T03:00:38;99869.66;;;15.11;100.00
8320;BME280;4197;42.130;24.746;2023-09-19T03:03:09;99876.31;;;15.13;100.00
8320;BME280;4197;42.130;24.746;2023-09-19T03:05:38;99876.56;;;15.01;100.00
8320;BME280;4197;42.130;24.746;2023-09-19T03:08:08;99877.41;;;15.05;100.00
8320;BME280;4197;42.130;24.746;2023-09-19T03:10:36;99876.94;;;15.00;100.00
8320;BME280;4197;42.130;24.746;2023-09-19T03:13:05;99872.59;;;14.95;100.00
8320;BME280;4197;42.130;24.746;2023-09-19T03:15:36;99874.88;;;14.89;100.00
8320;BME280;4197;42.130;24.746;2023-09-19T03:18:05;99871.25;;;14.82;100.00
8320;BME280;4197;42.130;24.746;2023-09-19T03:20:33;99871.22;;;14.78;100.00
8320;BME280;4197;42.130;24.746;2023-09-19T03:23:03;99865.22;;;14.65;100.00
8320;BME280;4197;42.130;24.746;2023-09-19T03:25:35;99869.88;;;14.65;100.00
8320;BME280;4197;42.130;24.746;2023-09-19T03:28:04;99872.25;;;14.66;100.00
8320;BME280;4197;42.130;24.746;2023-09-19T03:30:33;99873.81;;;14.67;100.00
8320;BME280;4197;42.130;24.746;2023-09-19T03:33:01;99877.72;;;14.66;100.00
8320;BME280;4197;42.130;24.746;2023-09-19T03:35:31;99868.41;;;14.71;100.00
8320;BME280;4197;42.130;24.746;2023-09-19T03:37:59;99867.59;;;14.67;100.00
8320;BME280;4197;42.130;24.746;2023-09-19T03:40:28;99872.28;;;14.70;100.00
8320;BME280;4197;42.130;24.746;2023-09-19T03:43:00;99878.19;;;14.72;100.00
8320;BME280;4197;42.130;24.746;2023-09-19T03:45:28;99873.81;;;14.67;100.00
8320;BME280;4197;42.130;24.746;2023-09-19T03:47:56;99868.72;;;14.66;100.00
8320;BME280;4197;42.130;24.746;2023-09-19T03:50:25;99880.06;;;14.68;100.00
8320;BME280;4197;42.130;24.746;2023-09-19T03:52:56;99878.06;;;14.65;100.00
8320;BME280;4197;42.130;24.746;2023-09-19T03:55:24;99880.38;;;14.63;100.00
8320;BME280;4197;42.130;24.746;2023-09-19T03:57:53;99877.25;;;14.61;100.00
8320;BME280;4197;42.130;24.746;2023-09-19T04:00:23;99880.00;;;14.61;100.00
8320;BME280;4197;42.130;24.746;2023-09-19T04:02:53;99881.19;;;14.63;100.00
8320;BME280;4197;42.130;24.746;2023-09-19T04:05:24;99892.44;;;14.58;100.00
8320;BME280;4197;42.130;24.746;2023-09-19T04:07:53;99887.72;;;14.55;100.00
8320;BME280;4197;42.130;24.746;2023-09-19T04:10:22;99885.38;;;14.57;100.00
8320;BME280;4197;42.130;24.746;2023-09-19T04:12:51;99886.97;;;14.58;100.00
8320;BME280;4197;42.130;24.746;2023-09-19T04:15:20;99883.84;;;14.60;100.00
8320;BME280;4197;42.130;24.746;2023-09-19T04:17:51;99887.81;;;14.66;100.00
8320;BME280;4197;42.130;24.746;2023-09-19T04:20:19;99894.00;;;14.59;100.00
8320;BME280;4197;42.130;24.746;2023-09-19T04:22:50;99888.22;;;14.64;100.00
8320;BME280;4197;42.130;24.746;2023-09-19T04:25:18;99884.38;;;14.69;100.00
8320;BME280;4197;42.130;24.746;2023-09-19T04:27:47;99881.09;;;14.56;100.00
8320;BME280;4197;42.130;24.746;2023-09-19T04:30:15;99881.38;;;14.51;100.00
8320;BME280;4197;42.130;24.746;2023-09-19T04:32:44;99877.19;;;14.57;100.00
8320;BME280;4197;42.130;24.746;2023-09-19T04:35:19;99887.78;;;14.62;100.00
8320;BME280;4197;42.130;24.746;2023-09-19T04:37:48;99897.19;;;14.65;100.00
8320;BME280;4197;42.130;24.746;2023-09-19T04:40:16;99887.47;;;14.67;100.00
8320;BME280;4197;42.130;24.746;2023-09-19T04:42:45;99888.78;;;14.77;100.00
8320;BME280;4197;42.130;24.746;2023-09-19T04:45:22;99880.16;;;14.75;100.00
8320;BME280;4197;42.130;24.746;2023-09-19T04:47:51;99886.38;;;14.72;100.00
8320;BME280;4197;42.130;24.746;2023-09-19T04:50:21;99893.28;;;14.66;100.00
8320;BME280;4197;42.130;24.746;2023-09-19T04:52:58;99884.84;;;14.75;100.00
8320;BME280;4197;42.130;24.746;2023-09-19T04:55:27;99884.16;;;14.85;100.00
8320;BME280;4197;42.130;24.746;2023-09-19T04:57:57;99883.41;;;14.88;100.00
8320;BME280;4197;42.130;24.746;2023-09-19T05:00:25;99872.16;;;14.93;100.00
8320;BME280;4197;42.130;24.746;2023-09-19T05:02:57;99877.59;;;14.89;100.00
8320;BME280;4197;42.130;24.746;2023-09-19T05:05:27;99876.84;;;14.92;100.00
8320;BME280;4197;42.130;24.746;2023-09-19T05:07:56;99875.03;;;15.04;100.00
8320;BME280;4197;42.130;24.746;2023-09-19T05:10:32;99878.94;;;15.03;100.00
8320;BME280;4197;42.130;24.746;2023-09-19T05:13:00;99883.00;;;15.20;100.00
8320;BME280;4197;42.130;24.746;2023-09-19T05:15:29;99888.16;;;15.25;100.00
8320;BME280;4197;42.130;24.746;2023-09-19T05:17:57;99885.47;;;15.32;100.00
8320;BME280;4197;42.130;24.746;2023-09-19T05:20:27;99889.16;;;15.50;100.00
8320;BME280;4197;42.130;24.746;2023-09-19T05:23:00;99884.94;;;15.60;100.00
8320;BME280;4197;42.130;24.746;2023-09-19T05:25:35;99889.53;;;15.49;100.00
8320;BME280;4197;42.130;24.746;2023-09-19T05:28:06;99882.09;;;15.46;100.00
8320;BME280;4197;42.130;24.746;2023-09-19T05:30:34;99881.81;;;15.58;100.00
8320;BME280;4197;42.130;24.746;2023-09-19T05:33:05;99892.13;;;15.72;100.00
8320;BME280;4197;42.130;24.746;2023-09-19T05:35:36;99888.25;;;15.76;100.00
8320;BME280;4197;42.130;24.746;2023-09-19T05:38:06;99899.59;;;15.78;100.00
8320;BME280;4197;42.130;24.746;2023-09-19T05:40:36;99896.19;;;15.92;98.92
8320;BME280;4197;42.130;24.746;2023-09-19T05:43:05;99897.06;;;16.03;97.48
8320;BME280;4197;42.130;24.746;2023-09-19T05:45:33;99908.78;;;16.04;97.38
8320;BME280;4197;42.130;24.746;2023-09-19T05:48:08;99902.59;;;16.11;97.41
8320;BME280;4197;42.130;24.746;2023-09-19T05:50:38;99910.50;;;16.26;95.84
8320;BME280;4197;42.130;24.746;2023-09-19T05:53:06;99904.72;;;16.39;94.92
8320;BME280;4197;42.130;24.746;2023-09-19T05:55:34;99903.56;;;16.40;94.27
8320;BME280;4197;42.130;24.746;2023-09-19T05:58:03;99905.16;;;16.41;93.92
8320;BME280;4197;42.130;24.746;2023-09-19T06:00:31;99897.78;;;16.56;93.02
8320;BME280;4197;42.130;24.746;2023-09-19T06:03:02;99892.31;;;16.52;92.97
8320;BME280;4197;42.130;24.746;2023-09-19T06:05:31;99885.28;;;16.58;92.85
8320;BME280;4197;42.130;24.746;2023-09-19T06:08:01;99879.81;;;16.65;91.93
8320;BME280;4197;42.130;24.746;2023-09-19T06:10:35;99874.81;;;16.75;90.86
8320;BME280;4197;42.130;24.746;2023-09-19T06:13:03;99872.09;;;16.82;91.22
8320;BME280;4197;42.130;24.746;2023-09-19T06:15:33;99871.00;;;17.04;88.93
8320;BME280;4197;42.130;24.746;2023-09-19T06:18:03;99867.50;;;17.07;88.26
8320;BME280;4197;42.130;24.746;2023-09-19T06:20:32;99876.53;;;17.26;86.52
8320;BME280;4197;42.130;24.746;2023-09-19T06:23:02;99880.47;;;17.43;85.46
8320;BME280;4197;42.130;24.746;2023-09-19T06:25:31;99880.50;;;17.46;85.71
8320;BME280;4197;42.130;24.746;2023-09-19T06:27:59;99872.69;;;17.55;84.92
8320;BME280;4197;42.130;24.746;2023-09-19T06:30:32;99886.03;;;17.82;82.23
8320;BME280;4197;42.130;24.746;2023-09-19T06:33:01;99878.59;;;17.82;82.34
8320;BME280;4197;42.130;24.746;2023-09-19T06:35:32;99872.69;;;17.77;83.84
8320;BME280;4197;42.130;24.746;2023-09-19T06:38:04;99875.84;;;17.90;85.27
8320;BME280;4197;42.130;24.746;2023-09-19T06:40:34;99875.81;;;18.15;83.18
8320;BME280;4197;42.130;24.746;2023-09-19T06:43:03;99869.97;;;17.95;84.73
8320;BME280;4197;42.130;24.746;2023-09-19T06:45:32;99876.22;;;18.02;84.97
8320;BME280;4197;42.130;24.746;2023-09-19T06:48:00;99870.69;;;18.20;84.42
8320;BME280;4197;42.130;24.746;2023-09-19T06:50:30;99865.59;;;18.30;84.46
8320;BME280;4197;42.130;24.746;2023-09-19T06:53:00;99870.31;;;18.25;84.60
8320;BME280;4197;42.130;24.746;2023-09-19T06:55:31;99868.72;;;18.32;84.13
8320;BME280;4197;42.130;24.746;2023-09-19T06:57:59;99867.13;;;18.45;83.74
8320;BME280;4197;42.130;24.746;2023-09-19T07:00:28;99864.75;;;18.54;83.02
8320;BME280;4197;42.130;24.746;2023-09-19T07:03:00;99863.53;;;18.62;82.71
8320;BME280;4197;42.130;24.746;2023-09-19T07:05:31;99869.78;;;18.73;81.53
8320;BME280;4197;42.130;24.746;2023-09-19T07:08:06;99865.47;;;18.69;82.47
8320;BME280;4197;42.130;24.746;2023-09-19T07:10:36;99868.53;;;18.89;81.21
8320;BME280;4197;42.130;24.746;2023-09-19T07:13:05;99860.31;;;18.89;81.30
8320;BME280;4197;42.130;24.746;2023-09-19T07:15:36;99864.19;;;18.95;80.01
8320;BME280;4197;42.130;24.746;2023-09-19T07:18:06;99856.75;;;18.96;79.44
8320;BME280;4197;42.130;24.746;2023-09-19T07:20:38;99865.75;;;19.00;81.27
8320;BME280;4197;42.130;24.746;2023-09-19T07:23:06;99856.69;;;19.03;81.42
8320;BME280;4197;42.130;24.746;2023-09-19T07:25:36;99858.59;;;19.16;80.01
8320;BME280;4197;42.130;24.746;2023-09-19T07:28:05;99860.00;;;19.39;77.83
8320;BME280;4197;42.130;24.746;2023-09-19T07:30:36;99862.66;;;19.57;75.68
8320;BME280;4197;42.130;24.746;2023-09-19T07:33:05;99861.84;;;19.56;76.04
8320;BME280;4197;42.130;24.746;2023-09-19T07:35:34;99859.47;;;19.66;75.90
8320;BME280;4197;42.130;24.746;2023-09-19T07:38:02;99856.28;;;19.71;75.25
8320;BME280;4197;42.130;24.746;2023-09-19T07:40:30;99846.72;;;19.82;73.65
8320;BME280;4197;42.130;24.746;2023-09-19T07:43:00;99840.44;;;19.82;73.31
8320;BME280;4197;42.130;24.746;2023-09-19T07:45:31;99842.81;;;19.80;72.50
8320;BME280;4197;42.130;24.746;2023-09-19T07:47:59;99841.56;;;19.88;73.72
8320;BME280;4197;42.130;24.746;2023-09-19T07:50:28;99834.72;;;20.03;73.27
8320;BME280;4197;42.130;24.746;2023-09-19T07:52:56;99831.34;;;20.26;71.68
8320;BME280;4197;42.130;24.746;2023-09-19T07:55:25;99832.72;;;20.45;70.92
8320;BME280;4197;42.130;24.746;2023-09-19T07:57:54;99825.03;;;20.64;69.33
8320;BME280;4197;42.130;24.746;2023-09-19T08:00:24;99817.88;;;20.70;69.65
8320;BME280;4197;42.130;24.746;2023-09-19T08:02:52;99814.44;;;20.89;67.60
8320;BME280;4197;42.130;24.746;2023-09-19T08:05:30;99818.47;;;20.85;68.01
8320;BME280;4197;42.130;24.746;2023-09-19T08:08:00;99809.59;;;21.01;66.91
8320;BME280;4197;42.130;24.746;2023-09-19T08:10:28;99811.19;;;20.98;65.95
8320;BME280;4197;42.130;24.746;2023-09-19T08:13:02;99815.91;;;20.98;66.16
8320;BME280;4197;42.130;24.746;2023-09-19T08:15:32;99807.63;;;20.98;65.57
8320;BME280;4197;42.130;24.746;2023-09-19T08:18:04;99809.22;;;20.99;65.53
8320;BME280;4197;42.130;24.746;2023-09-19T08:20:32;99804.09;;;21.01;65.53
8320;BME280;4197;42.130;24.746;2023-09-19T08:23:02;99801.31;;;21.01;64.87
8320;BME280;4197;42.130;24.746;2023-09-19T08:25:31;99797.88;;;21.20;63.24
8320;BME280;4197;42.130;24.746;2023-09-19T08:27:59;99795.66;;;21.35;63.53
8320;BME280;4197;42.130;24.746;2023-09-19T08:30:31;99798.81;;;21.60;61.40
8320;BME280;4197;42.130;24.746;2023-09-19T08:33:01;99797.59;;;21.61;59.65
8320;BME280;4197;42.130;24.746;2023-09-19T11:47:00;99566.31;;;26.62;42.66
8320;BME280;4197;42.130;24.746;2023-09-19T11:49:31;99562.63;;;26.75;42.18
8320;BME280;4197;42.130;24.746;2023-09-19T11:52:00;99554.56;;;26.77;42.35
8320;BME280;4197;42.130;24.746;2023-09-19T11:54:32;99550.41;;;26.81;42.86
8320;BME280;4197;42.130;24.746;2023-09-19T11:57:01;99550.56;;;26.87;42.86
8320;BME280;4197;42.130;24.746;2023-09-19T11:59:30;99557.84;;;27.21;41.43
8320;BME280;4197;42.130;24.746;2023-09-19T12:02:04;99546.38;;;27.10;41.15
8320;BME280;4197;42.130;24.746;2023-09-19T12:04:37;99552.44;;;27.08;40.79
8320;BME280;4197;42.130;24.746;2023-09-19T12:07:07;99538.53;;;27.18;40.81
8320;BME280;4197;42.130;24.746;2023-09-19T12:09:39;99540.25;;;27.24;40.52
8320;BME280;4197;42.130;24.746;2023-09-19T12:12:11;99538.19;;;27.15;40.74
8320;BME280;4197;42.130;24.746;2023-09-19T12:14:47;99525.69;;;27.20;40.89
8320;BME280;4197;42.130;24.746;2023-09-19T12:17:17;99526.91;;;27.28;40.69
8320;BME280;4197;42.130;24.746;2023-09-19T12:19:50;99526.28;;;27.33;40.14
8320;BME280;4197;42.130;24.746;2023-09-19T12:22:19;99531.41;;;27.26;40.21
8320;BME280;4197;42.130;24.746;2023-09-19T12:24:48;99523.50;;;27.15;40.29
8320;BME280;4197;42.130;24.746;2023-09-19T12:27:17;99522.59;;;27.09;40.35
8320;BME280;4197;42.130;24.746;2023-09-19T12:29:47;99528.16;;;27.09;39.74
8320;BME280;4197;42.130;24.746;2023-09-19T12:32:18;99529.25;;;27.21;39.73
8320;BME280;4197;42.130;24.746;2023-09-19T12:34:51;99526.75;;;27.04;40.11
8320;BME280;4197;42.130;24.746;2023-09-19T12:37:22;99524.91;;;27.01;39.64
8320;BME280;4197;42.130;24.746;2023-09-19T12:40:03;99519.94;;;26.96;40.23
8320;BME280;4197;42.130;24.746;2023-09-19T12:42:42;99519.34;;;26.64;40.94
8320;BME280;4197;42.130;24.746;2023-09-19T12:45:11;99515.03;;;26.63;41.45
8320;BME280;4197;42.130;24.746;2023-09-19T12:51:05;99502.03;;;27.06;40.20
8320;BME280;4197;42.130;24.746;2023-09-19T12:53:36;99506.50;;;27.04;39.58
8320;BME280;4197;42.130;24.746;2023-09-19T12:56:08;99501.72;;;26.95;40.04
8320;BME280;4197;42.130;24.746;2023-09-19T12:58:48;99501.25;;;26.51;41.25
8320;BME280;4197;42.130;24.746;2023-09-19T13:01:17;99498.88;;;26.49;41.03
8320;BME280;4197;42.130;24.746;2023-09-19T13:03:45;99504.50;;;26.67;40.62
8320;BME280;4197;42.130;24.746;2023-09-19T13:06:15;99496.47;;;26.60;40.66
8320;BME280;4197;42.130;24.746;2023-09-19T13:08:44;99492.94;;;26.10;41.16
8320;BME280;4197;42.130;24.746;2023-09-19T13:11:21;99483.09;;;26.18;41.87
8320;BME280;4197;42.130;24.746;2023-09-19T13:13:50;99491.13;;;26.16;41.36
8320;BME280;4197;42.130;24.746;2023-09-19T13:16:22;99494.09;;;26.31;42.11
8320;BME280;4197;42.130;24.746;2023-09-19T13:18:53;99480.34;;;26.37;42.08
8320;BME280;4197;42.130;24.746;2023-09-19T13:21:32;99486.88;;;26.52;42.03
8320;BME280;4197;42.130;24.746;2023-09-19T13:24:22;99480.56;;;26.79;40.93
8320;BME280;4197;42.130;24.746;2023-09-19T13:26:53;99486.59;;;26.87;40.44
8320;BME280;4197;42.130;24.746;2023-09-19T13:29:22;99479.59;;;27.10;39.59
8320;BME280;4197;42.130;24.746;2023-09-19T13:31:52;99478.66;;;27.13;39.28
8320;BME280;4197;42.130;24.746;2023-09-19T13:34:21;99482.84;;;27.18;38.99
8320;BME280;4197;42.130;24.746;2023-09-19T13:36:51;99471.56;;;27.12;39.42
8320;BME280;4197;42.130;24.746;2023-09-19T13:39:19;99464.31;;;27.05;39.30
8320;BME280;4197;42.130;24.746;2023-09-19T13:41:51;99466.16;;;27.08;39.24
8320;BME280;4197;42.130;24.746;2023-09-19T13:44:20;99463.06;;;26.88;39.44
8320;BME280;4197;42.130;24.746;2023-09-19T13:46:48;99461.22;;;26.94;39.43
8320;BME280;4197;42.130;24.746;2023-09-19T13:49:18;99465.25;;;26.93;39.60
8320;BME280;4197;42.130;24.746;2023-09-19T13:51:48;99455.19;;;26.96;39.77
8320;BME280;4197;42.130;24.746;2023-09-19T13:54:18;99454.91;;;26.84;40.16
8320;BME280;4197;42.130;24.746;2023-09-19T13:56:47;99456.13;;;26.74;40.95
8320;BME280;4197;42.130;24.746;2023-09-19T13:59:16;99449.81;;;26.74;40.82
8320;BME280;4197;42.130;24.746;2023-09-19T14:01:44;99445.16;;;26.80;40.88
8320;BME280;4197;42.130;24.746;2023-09-19T14:04:13;99440.66;;;26.82;40.90
8320;BME280;4197;42.130;24.746;2023-09-19T14:06:44;99441.75;;;26.85;41.60
8320;BME280;4197;42.130;24.746;2023-09-19T14:09:13;99438.06;;;26.79;40.94
8320;BME280;4197;42.130;24.746;2023-09-19T14:11:44;99432.97;;;26.68;41.51
8320;BME280;4197;42.130;24.746;2023-09-19T14:14:14;99435.13;;;26.64;41.18
8320;BME280;4197;42.130;24.746;2023-09-19T14:16:42;99431.44;;;26.67;41.90
8320;BME280;4197;42.130;24.746;2023-09-19T14:19:11;99437.75;;;26.67;41.73
8320;BME280;4197;42.130;24.746;2023-09-19T14:21:41;99438.53;;;26.59;41.55
8320;BME280;4197;42.130;24.746;2023-09-19T14:24:09;99440.06;;;26.60;41.56
8320;BME280;4197;42.130;24.746;2023-09-19T14:26:38;99434.81;;;26.62;41.59
8320;BME280;4197;42.130;24.746;2023-09-19T14:29:08;99431.59;;;26.63;41.45
8320;BME280;4197;42.130;24.746;2023-09-19T14:31:38;99429.09;;;26.56;41.43
8320;BME280;4197;42.130;24.746;2023-09-19T14:34:08;99433.41;;;26.48;41.65
8320;BME280;4197;42.130;24.746;2023-09-19T14:36:37;99430.63;;;26.48;42.06
8320;BME280;4197;42.130;24.746;2023-09-19T14:39:06;99437.44;;;26.47;42.34
8320;BME280;4197;42.130;24.746;2023-09-19T14:41:35;99433.84;;;26.46;42.57
8320;BME280;4197;42.130;24.746;2023-09-19T14:44:03;99435.28;;;26.51;42.86
8320;BME280;4197;42.130;24.746;2023-09-19T14:46:35;99431.88;;;26.47;43.04
8320;BME280;4197;42.130;24.746;2023-09-19T14:49:04;99428.47;;;26.43;43.15
8320;BME280;4197;42.130;24.746;2023-09-19T14:51:33;99430.31;;;26.37;43.36
8320;BME280;4197;42.130;24.746;2023-09-19T14:54:02;99441.59;;;26.33;43.59
8320;BME280;4197;42.130;24.746;2023-09-19T14:56:31;99433.09;;;26.28;44.10
8320;BME280;4197;42.130;24.746;2023-09-19T14:58:59;99439.59;;;26.24;43.93
8320;BME280;4197;42.130;24.746;2023-09-19T15:01:28;99436.47;;;26.22;43.49
8320;BME280;4197;42.130;24.746;2023-09-19T15:03:58;99428.75;;;26.17;43.33
8320;BME280;4197;42.130;24.746;2023-09-19T15:06:28;99439.53;;;26.15;43.60
8320;BME280;4197;42.130;24.746;2023-09-19T15:08:57;99440.78;;;26.14;44.00
8320;BME280;4197;42.130;24.746;2023-09-19T15:11:25;99433.66;;;26.13;44.23
8320;BME280;4197;42.130;24.746;2023-09-19T15:13:54;99442.16;;;26.10;44.24
8320;BME280;4197;42.130;24.746;2023-09-19T15:16:23;99436.75;;;26.06;44.67
8320;BME280;4197;42.130;24.746;2023-09-19T15:18:51;99432.44;;;26.05;45.12
8320;BME280;4197;42.130;24.746;2023-09-19T15:21:23;99430.88;;;26.04;44.79
8320;BME280;4197;42.130;24.746;2023-09-19T15:23:51;99435.34;;;26.01;44.90
8320;BME280;4197;42.130;24.746;2023-09-19T15:26:20;99435.84;;;26.00;45.09
8320;BME280;4197;42.130;24.746;2023-09-19T15:28:49;99430.72;;;25.98;44.91
8320;BME280;4197;42.130;24.746;2023-09-19T15:31:17;99442.31;;;25.97;44.71
8320;BME280;4197;42.130;24.746;2023-09-19T15:33:46;99439.53;;;25.97;45.00
8320;BME280;4197;42.130;24.746;2023-09-19T15:36:15;99442.00;;;25.95;45.22
8320;BME280;4197;42.130;24.746;2023-09-19T15:38:58;99441.66;;;25.93;45.11
8320;BME280;4197;42.130;24.746;2023-09-19T15:41:29;99448.16;;;25.90;44.91
8320;BME280;4197;42.130;24.746;2023-09-19T15:43:58;99445.97;;;25.85;45.22
8320;BME280;4197;42.130;24.746;2023-09-19T15:46:29;99447.78;;;25.78;45.07
8320;BME280;4197;42.130;24.746;2023-09-19T15:48:58;99440.03;;;25.73;45.16
8320;BME280;4197;42.130;24.746;2023-09-19T15:51:27;99446.34;;;25.65;45.40
8320;BME280;4197;42.130;24.746;2023-09-19T15:53:57;99445.06;;;25.56;45.54
8320;BME280;4197;42.130;24.746;2023-09-19T15:56:27;99444.88;;;25.51;45.56
8320;BME280;4197;42.130;24.746;2023-09-19T15:58:55;99448.72;;;25.44;45.24
8320;BME280;4197;42.130;24.746;2023-09-19T16:01:24;99447.75;;;25.38;45.54
8320;BME280;4197;42.130;24.746;2023-09-19T16:03:53;99444.78;;;25.32;45.45
8320;BME280;4197;42.130;24.746;2023-09-19T16:06:24;99449.06;;;25.24;46.02
8320;BME280;4197;42.130;24.746;2023-09-19T16:08:54;99445.00;;;25.16;46.21
8320;BME280;4197;42.130;24.746;2023-09-19T16:11:27;99446.34;;;25.11;46.16
8320;BME280;4197;42.130;24.746;2023-09-19T16:13:56;99443.06;;;25.04;46.51
8320;BME280;4197;42.130;24.746;2023-09-19T16:16:25;99445.66;;;24.98;47.08
8320;BME280;4197;42.130;24.746;2023-09-19T16:18:59;99445.47;;;24.92;47.15
8320;BME280;4197;42.130;24.746;2023-09-19T16:21:29;99439.41;;;24.85;47.45
8320;BME280;4197;42.130;24.746;2023-09-19T16:23:59;99446.28;;;24.80;47.72
8320;BME280;4197;42.130;24.746;2023-09-19T16:26:29;99442.53;;;24.74;48.22
8320;BME280;4197;42.130;24.746;2023-09-19T16:28:58;99444.34;;;24.68;48.55
8320;BME280;4197;42.130;24.746;2023-09-19T16:31:29;99437.50;;;24.60;48.91
8320;BME280;4197;42.130;24.746;2023-09-19T16:33:58;99433.78;;;24.54;49.14
8320;BME280;4197;42.130;24.746;2023-09-19T16:36:27;99442.31;;;24.46;50.00
8320;BME280;4197;42.130;24.746;2023-09-19T16:38:56;99437.44;;;24.38;50.42
8320;BME280;4197;42.130;24.746;2023-09-19T16:41:24;99446.47;;;24.29;51.45